createdAt,value
2023-04-02T00:01:34.431Z,98899.25
2023-04-02T00:04:14.205Z,98898.56
2023-04-02T00:06:45.318Z,98897.66
2023-04-02T00:09:15.486Z,98902.63
2023-04-02T00:11:46.533Z,98901.44
2023-04-02T00:14:51.438Z,98903.19
2023-04-02T00:17:21.587Z,98905.97
2023-04-02T00:20:06.789Z,98904.91
2023-04-02T00:22:34.151Z,98909.28
2023-04-02T00:25:13.214Z,98904.16
2023-04-02T00:27:41.329Z,98908.94
2023-04-02T00:30:12.931Z,98900.03
2023-04-02T00:32:40.606Z,98905.06
2023-04-02T00:35:26.465Z,98903.28
2023-04-02T00:37:54.913Z,98902.75
2023-04-02T00:40:31.639Z,98908.28
2023-04-02T00:43:04.278Z,98911.59
2023-04-02T00:45:37.006Z,98907.94
2023-04-02T00:49:22.439Z,98913.28
2023-04-02T00:52:06.625Z,98907.28
2023-04-02T00:54:54.052Z,98910.28
2023-04-02T00:57:25.581Z,98911.47
2023-04-02T01:00:15.887Z,98909.59
2023-04-02T01:02:43.400Z,98912.09
2023-04-02T01:05:16.625Z,98905.91
2023-04-02T01:08:27.403Z,98916.94
2023-04-02T01:11:51.767Z,98921.00
2023-04-02T01:14:56.990Z,98920.66
2023-04-02T01:18:18.366Z,98928.59
2023-04-02T01:21:07.552Z,98929.09
2023-04-02T01:23:59.663Z,98929.56
2023-04-02T01:26:54.471Z,98925.72
2023-04-02T01:29:38.439Z,98928.25
2023-04-02T01:32:15.509Z,98931.88
2023-04-02T01:34:47.149Z,98926.72
2023-04-02T01:37:53.440Z,98935.00
2023-04-02T01:41:04.082Z,98941.88
2023-04-02T01:43:56.445Z,98937.09
2023-04-02T01:46:33.219Z,98937.28
2023-04-02T01:49:12.647Z,98951.72
2023-04-02T01:51:51.219Z,98959.66
2023-04-02T01:54:22.130Z,98958.53
2023-04-02T01:56:51.087Z,98956.56
2023-04-02T01:59:22.362Z,98962.47
2023-04-02T02:02:04.765Z,98959.66
2023-04-02T02:04:35.008Z,98961.28
2023-04-02T02:07:04.183Z,98963.75
2023-04-02T02:09:35.762Z,98972.78
2023-04-02T02:12:05.222Z,98973.03
2023-04-02T02:14:33.282Z,98984.59
2023-04-02T02:17:04.018Z,98995.28
2023-04-02T02:19:39.042Z,98986.13
2023-04-02T02:22:36.128Z,98993.91
2023-04-02T02:25:16.872Z,98991.91
2023-04-02T02:27:52.334Z,99000.09
2023-04-02T02:30:51.460Z,99007.75
2023-04-02T02:33:47.240Z,99004.22
2023-04-02T02:36:50.689Z,99003.31
2023-04-02T02:39:44.549Z,99016.03
2023-04-02T02:42:39.821Z,99024.69
2023-04-02T02:45:18.644Z,99030.91
2023-04-02T02:47:48.265Z,99039.25
2023-04-02T02:50:33.883Z,99036.50
2023-04-02T02:53:22.133Z,99047.31
2023-04-02T02:55:56.589Z,99049.75
2023-04-02T02:58:33.064Z,99048.75
2023-04-02T03:01:10.720Z,99057.69
2023-04-02T03:03:40.508Z,99050.22
2023-04-02T03:06:16.522Z,99055.19
2023-04-02T03:09:13.523Z,99053.72
2023-04-02T03:11:54.142Z,99057.94
2023-04-02T03:14:44.297Z,99063.41
2023-04-02T03:17:33.090Z,99065.53
2023-04-02T03:20:27.072Z,99071.38
2023-04-02T03:23:09.014Z,99068.22
2023-04-02T03:25:57.420Z,99073.97
2023-04-02T03:28:31.949Z,99065.41
2023-04-02T03:31:31.394Z,99072.41
2023-04-02T03:34:15.813Z,99076.56
2023-04-02T03:37:16.341Z,99075.22
2023-04-02T03:40:04.262Z,99080.09
2023-04-02T03:43:06.470Z,99087.81
2023-04-02T03:45:54.776Z,99092.09
2023-04-02T03:48:48.507Z,99090.88
2023-04-02T03:51:46.131Z,99096.34
2023-04-02T03:54:16.799Z,99092.91
2023-04-02T03:56:47.450Z,99095.88
2023-04-02T03:59:50.512Z,99090.88
2023-04-02T04:02:33.744Z,99097.50
2023-04-02T04:05:05.949Z,99106.16
2023-04-02T04:07:41.335Z,99109.72
2023-04-02T04:10:17.264Z,99109.22
2023-04-02T04:12:48.859Z,99119.66
2023-04-02T04:15:53.379Z,99123.31
2023-04-02T04:18:49.982Z,99119.66
2023-04-02T04:21:31.144Z,99124.59
2023-04-02T04:24:21.863Z,99127.78
2023-04-02T04:27:11.503Z,99124.13
2023-04-02T04:30:07.720Z,99133.13
2023-04-02T04:33:05.686Z,99134.41
2023-04-02T04:35:45.514Z,99133.50
2023-04-02T04:38:44.337Z,99143.28
2023-04-02T04:41:42.675Z,99145.94
2023-04-02T04:44:46.458Z,99144.91
2023-04-02T04:48:02.847Z,99157.94
2023-04-02T04:50:41.326Z,99167.13
2023-04-02T04:53:20.126Z,99173.06
2023-04-02T04:56:16.549Z,99183.34
2023-04-02T04:59:30.763Z,99180.44
2023-04-02T05:02:23.812Z,99180.75
2023-04-02T05:04:53.022Z,99181.97
2023-04-02T05:07:36.835Z,99190.19
2023-04-02T05:10:37.868Z,99189.91
2023-04-02T05:13:29.709Z,99189.63
2023-04-02T05:16:23.238Z,99198.88
2023-04-02T05:19:19.445Z,99200.91
2023-04-02T05:22:07.304Z,99198.94
2023-04-02T05:24:51.668Z,99208.97
2023-04-02T05:28:11.347Z,99215.53
2023-04-02T05:30:54.602Z,99220.06
2023-04-02T05:33:34.118Z,99223.03
2023-04-02T05:36:11.669Z,99215.56
2023-04-02T05:38:47.639Z,99213.53
2023-04-02T05:41:31.501Z,99219.16
2023-04-02T05:44:29.472Z,99226.84
2023-04-02T05:47:29.675Z,99225.91
2023-04-02T05:50:30.609Z,99234.16
2023-04-02T05:53:37.942Z,99249.25
2023-04-02T05:56:48.130Z,99255.72
2023-04-02T05:59:38.462Z,99254.94
2023-04-02T06:02:36.697Z,99250.75
2023-04-02T06:05:16.943Z,99251.56
2023-04-02T06:08:03.640Z,99254.28
2023-04-02T06:10:41.935Z,99257.00
2023-04-02T06:13:16.682Z,99261.66
2023-04-02T06:15:47.254Z,99262.63
2023-04-02T06:18:26.340Z,99266.72
2023-04-02T06:20:55.335Z,99271.16
2023-04-02T06:24:00.807Z,99262.41
2023-04-02T06:26:42.847Z,99266.84
2023-04-02T06:29:39.787Z,99269.72
2023-04-02T06:32:12.441Z,99275.25
2023-04-02T06:34:43.190Z,99271.78
2023-04-02T06:37:40.183Z,99279.88
2023-04-02T06:40:45.419Z,99275.94
2023-04-02T06:43:58.414Z,99281.47
2023-04-02T06:47:13.385Z,99296.03
2023-04-02T06:49:52.738Z,99293.47
2023-04-02T06:52:50.952Z,99299.84
2023-04-02T06:55:35.732Z,99299.06
2023-04-02T06:58:03.326Z,99304.47
2023-04-02T07:00:43.860Z,99311.75
2023-04-02T07:03:31.534Z,99309.38
2023-04-02T07:06:04.271Z,99315.47
2023-04-02T07:08:33.594Z,99317.47
2023-04-02T07:11:00.954Z,99315.53
2023-04-02T07:13:28.764Z,99316.19
2023-04-02T07:15:56.526Z,99326.03
2023-04-02T07:18:29.415Z,99326.16
2023-04-02T07:20:58.515Z,99329.94
2023-04-02T07:23:27.354Z,99331.94
2023-04-02T07:25:57.871Z,99336.16
2023-04-02T07:28:26.344Z,99344.19
2023-04-02T07:30:54.492Z,99344.13
2023-04-02T07:33:27.416Z,99344.84
2023-04-02T07:38:25.352Z,99341.94
2023-04-02T07:40:52.720Z,99350.78
2023-04-02T07:43:20.138Z,99346.63
2023-04-02T07:45:47.412Z,99345.78
2023-04-02T07:48:15.118Z,99351.09
2023-04-02T07:50:42.505Z,99354.00
2023-04-02T07:53:30.237Z,99361.06
2023-04-02T07:56:01.484Z,99360.09
2023-04-02T07:58:33.050Z,99361.88
2023-04-02T08:01:04.438Z,99359.91
2023-04-02T08:03:31.876Z,99360.19
2023-04-02T08:05:59.277Z,99364.81
2023-04-02T08:08:26.628Z,99357.94
2023-04-02T08:10:55.455Z,99360.94
2023-04-02T08:13:22.762Z,99363.78
2023-04-02T08:15:50.017Z,99370.81
2023-04-02T08:18:17.182Z,99375.16
2023-04-02T08:20:44.640Z,99376.97
2023-04-02T08:23:17.751Z,99381.56
2023-04-02T08:25:46.169Z,99382.03
2023-04-02T08:28:13.986Z,99378.75
2023-04-02T08:30:41.873Z,99377.53
2023-04-02T08:33:09.325Z,99383.44
2023-04-02T08:35:36.999Z,99378.91
2023-04-02T08:38:04.353Z,99382.97
2023-04-02T08:40:43.246Z,99383.22
2023-04-02T08:43:41.855Z,99374.97
2023-04-02T08:46:30.024Z,99376.03
2023-04-02T08:49:03.653Z,99382.75
2023-04-02T08:51:36.791Z,99377.16
2023-04-02T08:54:23.943Z,99385.22
2023-04-02T08:57:25.522Z,99380.25
2023-04-02T09:00:26.804Z,99381.69
2023-04-02T09:03:14.980Z,99391.38
2023-04-02T09:05:44.416Z,99389.25
2023-04-02T09:08:33.223Z,99402.31
2023-04-02T09:11:27.799Z,99397.53
2023-04-02T09:14:03.818Z,99391.47
2023-04-02T09:16:56.094Z,99402.38
2023-04-02T09:19:33.688Z,99408.69
2023-04-02T09:22:20.175Z,99405.38
2023-04-02T09:25:00.941Z,99414.66
2023-04-02T09:27:34.998Z,99411.06
2023-04-02T09:30:41.928Z,99414.03
2023-04-02T09:33:09.929Z,99423.22
2023-04-02T09:35:57.901Z,99430.19
2023-04-02T09:38:30.757Z,99423.72
2023-04-02T09:41:06.860Z,99428.44
2023-04-02T09:43:39.263Z,99424.78
2023-04-02T09:46:23.740Z,99429.28
2023-04-02T09:49:00.904Z,99434.09
2023-04-02T09:51:34.211Z,99441.09
2023-04-02T09:54:04.275Z,99438.31
2023-04-02T09:56:39.076Z,99444.59
2023-04-02T09:59:21.802Z,99446.50
2023-04-02T10:01:55.317Z,99446.41
2023-04-02T10:04:48.657Z,99444.88
2023-04-02T10:07:39.155Z,99451.91
2023-04-02T10:10:43.478Z,99448.50
2023-04-02T10:13:29.276Z,99453.28
2023-04-02T10:16:12.943Z,99451.38
2023-04-02T10:19:20.115Z,99454.91
2023-04-02T10:21:49.228Z,99457.41
2023-04-02T10:24:18.216Z,99451.00
2023-04-02T10:26:50.490Z,99459.00
2023-04-02T10:29:55.922Z,99464.94
2023-04-02T10:32:32.524Z,99471.72
2023-04-02T10:35:56.307Z,99455.84
2023-04-02T10:38:42.750Z,99462.41
2023-04-02T10:41:36.455Z,99465.16
2023-04-02T10:44:44.911Z,99472.91
2023-04-02T10:47:49.253Z,99468.19
2023-04-02T10:50:51.718Z,99462.50
2023-04-02T10:53:29.297Z,99459.44
2023-04-02T10:56:05.510Z,99456.69
2023-04-02T10:58:57.486Z,99467.19
2023-04-02T11:01:31.199Z,99461.47
2023-04-02T11:04:16.571Z,99453.69
2023-04-02T11:07:07.145Z,99460.59
2023-04-02T11:09:47.202Z,99455.41
2023-04-02T11:13:33.317Z,99446.44
2023-04-02T11:16:00.654Z,99449.81
2023-04-02T11:18:36.684Z,99445.28
2023-04-02T11:21:44.869Z,99454.16
2023-04-02T11:24:56.007Z,99453.50
2023-04-02T11:27:36.194Z,99454.84
2023-04-02T11:30:27.054Z,99444.16
2023-04-02T11:32:56.182Z,99449.94
2023-04-02T11:35:39.538Z,99447.72
2023-04-02T11:38:10.839Z,99444.56
2023-04-02T11:40:55.964Z,99450.75
2023-04-02T11:43:37.927Z,99446.75
2023-04-02T11:46:16.921Z,99440.84
2023-04-02T11:48:44.447Z,99445.25
2023-04-02T11:51:21.324Z,99444.78
2023-04-02T11:53:52.901Z,99449.31
2023-04-02T11:57:21.470Z,99462.28
2023-04-02T12:00:32.813Z,99446.19
2023-04-02T12:03:33.648Z,99452.22
2023-04-02T12:06:50.394Z,99448.78
2023-04-02T12:09:24.052Z,99449.94
2023-04-02T12:11:54.948Z,99446.22
2023-04-02T12:14:48.557Z,99449.28
2023-04-02T12:17:39.869Z,99445.75
2023-04-02T12:20:10.229Z,99449.34
2023-04-02T12:22:50.964Z,99449.41
2023-04-02T12:25:21.945Z,99439.28
2023-04-02T12:28:23.578Z,99450.31
2023-04-02T12:31:02.697Z,99445.13
2023-04-02T12:33:37.284Z,99449.97
2023-04-02T12:36:10.063Z,99460.22
2023-04-02T12:38:56.906Z,99449.38
2023-04-02T12:41:33.203Z,99451.44
2023-04-02T12:44:30.035Z,99443.44
2023-04-02T12:46:58.754Z,99446.19
2023-04-02T12:49:39.243Z,99437.72
2023-04-02T12:52:14.032Z,99442.75
2023-04-02T12:55:06.150Z,99439.66
2023-04-02T12:57:39.172Z,99429.38
2023-04-02T13:00:21.713Z,99428.94
2023-04-02T13:03:03.140Z,99420.81
2023-04-02T13:05:43.642Z,99429.56
2023-04-02T13:08:31.226Z,99427.00
2023-04-02T13:11:04.999Z,99422.09
2023-04-02T13:13:37.902Z,99419.63
2023-04-02T13:16:10.393Z,99418.28
2023-04-02T13:18:40.364Z,99418.06
2023-04-02T13:21:28.938Z,99399.16
2023-04-02T13:23:56.249Z,99406.41
2023-04-02T13:26:28.989Z,99391.16
2023-04-02T13:29:00.426Z,99395.50
2023-04-02T13:31:30.446Z,99399.13
2023-04-02T13:33:58.965Z,99386.97
2023-04-02T13:36:29.141Z,99394.97
2023-04-02T13:38:57.224Z,99385.25
2023-04-02T13:41:37.169Z,99382.66
2023-04-02T13:44:04.930Z,99372.84
2023-04-02T13:46:34.809Z,99369.38
2023-04-02T13:49:02.486Z,99370.94
2023-04-02T13:51:40.788Z,99379.06
2023-04-02T13:54:23.422Z,99374.72
2023-04-02T13:56:50.842Z,99374.66
2023-04-02T13:59:18.341Z,99380.84
2023-04-02T14:01:47.882Z,99377.38
2023-04-02T14:04:26.287Z,99384.47
2023-04-02T14:07:32.408Z,99382.13
2023-04-02T14:10:46.119Z,99372.19
2023-04-02T14:14:06.227Z,99376.69
2023-04-02T14:17:26.115Z,99384.34
2023-04-02T14:20:42.218Z,99381.47
2023-04-02T14:23:42.475Z,99379.34
2023-04-02T14:27:07.129Z,99376.88
2023-04-02T14:30:02.435Z,99374.66
2023-04-02T14:33:16.956Z,99381.06
2023-04-02T14:35:49.889Z,99376.47
2023-04-02T14:38:31.259Z,99372.38
2023-04-02T14:41:29.280Z,99361.63
2023-04-02T14:44:06.658Z,99373.91
2023-04-02T14:46:38.316Z,99365.53
2023-04-02T14:49:34.597Z,99369.03
2023-04-02T14:52:06.725Z,99363.28
2023-04-02T14:54:45.074Z,99362.19
2023-04-02T14:57:33.301Z,99363.06
2023-04-02T15:00:29.868Z,99364.09
2023-04-02T15:03:44.707Z,99368.41
2023-04-02T15:06:32.003Z,99363.47
2023-04-02T15:09:28.954Z,99360.53
2023-04-02T15:12:24.973Z,99353.63
2023-04-02T15:15:11.761Z,99356.56
2023-04-02T15:17:39.209Z,99368.22
2023-04-02T15:20:19.549Z,99360.56
2023-04-02T15:23:04.491Z,99361.03
2023-04-02T15:25:58.124Z,99361.97
2023-04-02T15:29:06.310Z,99362.56
2023-04-02T15:31:36.300Z,99367.47
2023-04-02T15:34:31.919Z,99360.78
2023-04-02T15:37:13.517Z,99359.19
2023-04-02T15:40:20.416Z,99368.31
2023-04-02T15:43:06.996Z,99369.97
2023-04-02T15:45:56.474Z,99377.84
2023-04-02T15:48:55.652Z,99372.88
2023-04-02T15:51:48.381Z,99369.31
2023-04-02T15:54:37.526Z,99361.44
2023-04-02T15:57:41.056Z,99368.94
2023-04-02T16:00:30.486Z,99369.38
2023-04-02T16:03:30.954Z,99363.75
2023-04-02T16:06:32.403Z,99366.44
2023-04-02T16:09:27.232Z,99378.81
2023-04-02T16:12:18.315Z,99369.47
2023-04-02T16:14:49.549Z,99373.94
2023-04-02T16:17:32.236Z,99386.69
2023-04-02T16:20:30.007Z,99387.00
2023-04-02T16:23:12.089Z,99395.91
2023-04-02T16:25:57.719Z,99391.41
2023-04-02T16:29:03.109Z,99389.75
2023-04-02T16:31:46.676Z,99392.13
2023-04-02T16:34:40.251Z,99400.03
2023-04-02T16:38:00.773Z,99406.44
2023-04-02T16:41:07.680Z,99406.66
2023-04-02T16:44:26.164Z,99409.91
2023-04-02T16:47:40.068Z,99413.50
2023-04-02T16:50:55.329Z,99407.44
2023-04-02T16:54:12.154Z,99426.88
2023-04-02T16:57:00.232Z,99419.75
2023-04-02T17:00:08.174Z,99424.19
2023-04-02T17:02:44.429Z,99423.31
2023-04-02T17:05:53.373Z,99424.28
2023-04-02T17:08:52.932Z,99435.75
2023-04-02T17:11:47.917Z,99436.47
2023-04-02T17:14:36.178Z,99438.09
2023-04-02T17:17:05.458Z,99443.34
2023-04-02T17:19:33.286Z,99441.78
2023-04-02T17:22:06.086Z,99441.56
2023-04-02T17:24:44.690Z,99448.38
2023-04-02T17:27:26.005Z,99449.59
2023-04-02T17:30:01.538Z,99449.22
2023-04-02T17:32:33.630Z,99442.94
2023-04-02T17:35:20.996Z,99441.13
2023-04-02T17:38:05.738Z,99445.66
2023-04-02T17:40:54.122Z,99451.59
2023-04-02T17:43:50.998Z,99461.97
2023-04-02T17:46:52.487Z,99459.28
2023-04-02T17:49:39.235Z,99458.91
2023-04-02T17:52:32.009Z,99472.25
2023-04-02T17:55:24.278Z,99466.16
2023-04-02T17:58:18.416Z,99480.06
2023-04-02T18:01:36.493Z,99490.25
2023-04-02T18:05:25.106Z,99488.56
2023-04-02T18:08:43.680Z,99498.06
2023-04-02T18:11:47.843Z,99504.31
2023-04-02T18:15:02.999Z,99504.13
2023-04-02T18:17:52.550Z,99513.63
2023-04-02T18:21:01.239Z,99517.78
2023-04-02T18:24:33.500Z,99522.09
2023-04-02T18:27:59.666Z,99521.75
2023-04-02T18:30:54.579Z,99522.38
2023-04-02T18:34:06.563Z,99539.00
2023-04-02T18:37:18.495Z,99543.25
2023-04-02T18:40:35.306Z,99549.22
2023-04-02T18:43:40.532Z,99555.94
2023-04-02T18:46:40.375Z,99567.09
2023-04-02T18:49:35.998Z,99562.63
2023-04-02T18:52:16.957Z,99572.94
2023-04-02T18:54:57.372Z,99571.75
2023-04-02T18:57:30.600Z,99570.56
2023-04-02T19:00:15.347Z,99571.41
2023-04-02T19:03:26.810Z,99578.31
2023-04-02T19:06:15.875Z,99577.22
2023-04-02T19:09:13.172Z,99580.31
2023-04-02T19:11:40.362Z,99590.41
2023-04-02T19:14:21.284Z,99591.84
2023-04-02T19:17:02.715Z,99594.44
2023-04-02T19:20:28.768Z,99604.91
2023-04-02T19:23:20.747Z,99602.09
2023-04-02T19:26:33.063Z,99610.44
2023-04-02T19:29:45.784Z,99610.22
2023-04-02T19:32:49.367Z,99616.38
2023-04-02T19:35:47.237Z,99615.56
2023-04-02T19:39:13.136Z,99627.50
2023-04-02T19:42:16.116Z,99628.81
2023-04-02T19:44:50.544Z,99628.41
2023-04-02T19:47:18.834Z,99632.53
2023-04-02T19:49:46.259Z,99632.34
2023-04-02T19:52:13.558Z,99636.53
2023-04-02T19:54:40.836Z,99634.66
2023-04-02T19:57:08.169Z,99641.38
2023-04-02T19:59:35.514Z,99649.72
2023-04-02T20:02:06.516Z,99650.28
2023-04-02T20:04:33.843Z,99647.75
2023-04-02T20:07:01.236Z,99647.66
2023-04-02T20:09:29.812Z,99647.44
2023-04-02T20:11:56.971Z,99657.66
2023-04-02T20:14:24.260Z,99651.47
2023-04-02T20:16:51.923Z,99655.81
2023-04-02T20:19:19.717Z,99659.31
2023-04-02T20:21:46.912Z,99660.16
2023-04-02T20:24:14.165Z,99657.50
2023-04-02T20:26:41.591Z,99654.66
2023-04-02T20:29:08.802Z,99656.94
2023-04-02T20:31:36.249Z,99652.59
2023-04-02T20:34:05.442Z,99660.19
2023-04-02T20:36:32.983Z,99657.25
2023-04-02T20:39:07.141Z,99656.00
2023-04-02T20:41:34.397Z,99661.44
2023-04-02T20:44:02.055Z,99664.06
2023-04-02T20:46:29.277Z,99668.09
2023-04-02T20:48:56.432Z,99671.75
2023-04-02T20:51:23.588Z,99672.69
2023-04-02T20:53:50.747Z,99675.78
2023-04-02T20:56:18.920Z,99681.75
2023-04-02T20:58:46.209Z,99690.41
2023-04-02T21:01:29.717Z,99684.31
2023-04-02T21:04:04.489Z,99684.34
2023-04-02T21:06:37.412Z,99693.88
2023-04-02T21:09:17.114Z,99701.63
2023-04-02T21:11:44.624Z,99695.41
2023-04-02T21:14:11.889Z,99702.31
2023-04-02T21:16:41.517Z,99707.75
2023-04-02T21:19:10.138Z,99702.56
2023-04-02T21:21:40.370Z,99711.25
2023-04-02T21:24:09.675Z,99704.34
2023-04-02T21:26:40.845Z,99701.88
2023-04-02T21:29:08.340Z,99702.94
2023-04-02T21:31:40.672Z,99696.03
2023-04-02T21:34:13.401Z,99704.84
2023-04-02T21:36:47.201Z,99698.22
2023-04-02T21:39:22.032Z,99691.94
2023-04-02T21:41:52.123Z,99688.22
2023-04-02T21:44:24.512Z,99687.34
2023-04-02T21:46:53.916Z,99692.72
2023-04-02T21:49:23.274Z,99697.34
2023-04-02T21:51:56.811Z,99695.28
2023-04-02T21:54:24.012Z,99693.25
2023-04-02T21:56:51.424Z,99691.75
2023-04-02T21:59:19.222Z,99697.59
2023-04-02T22:01:50.995Z,99701.72
2023-04-02T22:04:23.511Z,99706.03
2023-04-02T22:06:52.826Z,99700.66
2023-04-02T22:09:24.992Z,99701.91
2023-04-02T22:11:59.041Z,99700.63
2023-04-02T22:14:27.528Z,99710.63
2023-04-02T22:16:55.180Z,99708.88
2023-04-02T22:19:22.594Z,99700.09
2023-04-02T22:21:50.130Z,99705.13
2023-04-02T22:24:18.893Z,99701.94
2023-04-02T22:26:47.011Z,99707.41
2023-04-02T22:29:14.762Z,99709.69
2023-04-02T22:31:42.177Z,99717.94
2023-04-02T22:34:09.534Z,99723.09
2023-04-02T22:36:37.022Z,99724.28
2023-04-02T22:39:06.753Z,99722.78
2023-04-02T22:41:34.107Z,99718.91
2023-04-02T22:44:02.806Z,99715.78
2023-04-02T22:46:30.953Z,99713.84
2023-04-02T22:48:58.859Z,99711.84
2023-04-02T22:51:27.985Z,99708.75
2023-04-02T22:53:56.693Z,99713.69
2023-04-02T22:56:32.155Z,99715.88
2023-04-02T22:58:59.903Z,99715.44
2023-04-02T23:01:33.265Z,99718.63
2023-04-02T23:04:01.503Z,99723.72
2023-04-02T23:06:29.462Z,99715.22
2023-04-02T23:08:56.969Z,99710.44
2023-04-02T23:11:27.654Z,99711.19
2023-04-02T23:13:57.860Z,99710.22
2023-04-02T23:16:29.312Z,99718.72
2023-04-02T23:18:57.278Z,99714.78
2023-04-02T23:21:25.541Z,99706.56
2023-04-02T23:23:53.033Z,99705.47
2023-04-02T23:26:31.232Z,99705.31
2023-04-02T23:29:00.324Z,99706.88
2023-04-02T23:31:28.253Z,99710.47
2023-04-02T23:33:55.765Z,99709.84
2023-04-02T23:36:26.895Z,99704.84
2023-04-02T23:38:59.684Z,99696.13
2023-04-02T23:41:28.953Z,99696.25
2023-04-02T23:43:58.136Z,99688.28
2023-04-02T23:46:26.223Z,99689.50
2023-04-02T23:48:54.951Z,99691.34
2023-04-02T23:51:24.104Z,99693.06
2023-04-02T23:53:53.484Z,99687.59
2023-04-02T23:56:21.755Z,99688.34
2023-04-02T23:58:50.676Z,99687.75
